createdAt,value
2018-05-09T00:02:15.600Z,97157.13
2018-05-09T00:04:42.704Z,97157.59
2018-05-09T00:07:09.930Z,97156.25
2018-05-09T00:09:37.020Z,97154.02
2018-05-09T00:12:04.187Z,97157.91
2018-05-09T00:14:31.161Z,97162.37
2018-05-09T00:16:58.268Z,97151.91
2018-05-09T00:19:25.341Z,97150.94
2018-05-09T00:21:52.433Z,97149.58
2018-05-09T00:24:19.548Z,97151.11
2018-05-09T00:26:46.678Z,97149.69
2018-05-09T00:29:13.761Z,97153.09
2018-05-09T00:31:40.849Z,97160.55
2018-05-09T00:34:07.941Z,97148.55
2018-05-09T00:36:35.045Z,97152.59
2018-05-09T00:39:02.182Z,97149.23
2018-05-09T00:41:29.245Z,97149.16
2018-05-09T00:43:56.325Z,97150.18
2018-05-09T00:46:23.491Z,97152.41
2018-05-09T00:48:50.695Z,97158.47
2018-05-09T00:51:17.829Z,97167.05
2018-05-09T00:53:44.878Z,97169.59
2018-05-09T00:56:11.955Z,97156.64
2018-05-09T00:58:39.022Z,97149.56
2018-05-09T01:01:06.316Z,97147.41
2018-05-09T01:03:33.396Z,97154.16
2018-05-09T01:06:00.488Z,97150.91
2018-05-09T01:08:27.589Z,97150.75
2018-05-09T01:10:54.619Z,97150.25
2018-05-09T01:13:21.656Z,97147.19
2018-05-09T01:15:48.741Z,97149.41
2018-05-09T01:18:15.821Z,97151.53
2018-05-09T01:20:42.909Z,97155.03
2018-05-09T01:23:09.990Z,97145.50
2018-05-09T01:25:37.174Z,97152.47
2018-05-09T01:28:04.316Z,97151.58
2018-05-09T01:30:31.531Z,97150.62
2018-05-09T01:32:58.593Z,97150.26
2018-05-09T01:35:25.710Z,97146.01
2018-05-09T01:37:52.784Z,97143.94
2018-05-09T01:40:19.841Z,97148.78
2018-05-09T01:42:46.909Z,97146.88
2018-05-09T01:45:14.295Z,97148.15
2018-05-09T01:47:41.397Z,97155.77
2018-05-09T01:50:08.469Z,97155.11
2018-05-09T01:52:35.559Z,97154.67
2018-05-09T01:55:02.680Z,97154.34
2018-05-09T01:57:29.736Z,97152.98
2018-05-09T01:59:56.912Z,97150.41
2018-05-09T02:02:23.931Z,97149.31
2018-05-09T02:04:51.022Z,97143.54
2018-05-09T02:07:18.822Z,97144.97
2018-05-09T02:09:45.886Z,97132.05
2018-05-09T02:12:12.965Z,97137.59
2018-05-09T02:14:40.045Z,97139.36
2018-05-09T02:17:07.175Z,97137.52
2018-05-09T02:19:34.218Z,97132.93
2018-05-09T02:22:01.279Z,97131.66
2018-05-09T02:24:28.454Z,97125.53
2018-05-09T02:26:55.646Z,97135.52
2018-05-09T02:29:22.735Z,97139.22
2018-05-09T02:31:49.800Z,97134.71
2018-05-09T02:34:16.901Z,97141.22
2018-05-09T02:36:43.992Z,97141.95
2018-05-09T02:39:11.101Z,97145.28
2018-05-09T02:41:38.257Z,97141.95
2018-05-09T02:44:05.337Z,97138.24
2018-05-09T02:46:32.494Z,97143.08
2018-05-09T02:48:59.705Z,97137.61
2018-05-09T02:51:26.901Z,97136.10
2018-05-09T02:53:53.956Z,97130.97
2018-05-09T02:56:21.081Z,97131.51
2018-05-09T02:58:48.262Z,97133.93
2018-05-09T03:01:15.339Z,97136.04
2018-05-09T03:03:42.432Z,97131.41
2018-05-09T03:06:09.511Z,97125.72
2018-05-09T03:08:36.885Z,97126.76
2018-05-09T03:11:03.955Z,97119.40
2018-05-09T03:13:31.181Z,97132.20
2018-05-09T03:15:58.249Z,97120.75
2018-05-09T03:18:25.341Z,97120.63
2018-05-09T03:20:52.476Z,97117.73
2018-05-09T03:23:19.852Z,97113.30
2018-05-09T03:25:46.960Z,97113.64
2018-05-09T03:28:14.042Z,97117.17
2018-05-09T03:30:41.156Z,97117.37
2018-05-09T03:33:08.272Z,97118.68
2018-05-09T03:35:35.329Z,97122.58
2018-05-09T03:38:02.434Z,97128.36
2018-05-09T03:40:29.515Z,97127.13
2018-05-09T03:42:56.557Z,97141.17
2018-05-09T03:45:23.763Z,97143.35
2018-05-09T03:47:50.835Z,97152.61
2018-05-09T03:50:17.907Z,97148.88
2018-05-09T03:52:44.981Z,97144.02
2018-05-09T03:55:12.186Z,97143.85
2018-05-09T03:57:39.335Z,97148.08
2018-05-09T04:00:06.418Z,97144.27
2018-05-09T04:02:39.284Z,97145.34
2018-05-09T04:05:12.297Z,97147.70
2018-05-09T04:07:45.186Z,97151.88
2018-05-09T04:10:12.255Z,97157.65
2018-05-09T04:12:39.364Z,97168.34
2018-05-09T04:15:06.720Z,97165.73
2018-05-09T04:17:33.812Z,97170.89
2018-05-09T04:20:00.989Z,97170.06
2018-05-09T04:22:28.072Z,97171.40
2018-05-09T04:24:55.166Z,97172.87
2018-05-09T04:27:22.295Z,97171.19
2018-05-09T04:29:49.432Z,97167.52
2018-05-09T04:32:16.526Z,97166.52
2018-05-09T04:34:43.600Z,97163.94
2018-05-09T04:37:11.443Z,97162.11
2018-05-09T04:39:38.721Z,97166.00
2018-05-09T04:42:05.911Z,97169.93
2018-05-09T04:44:33.058Z,97175.21
2018-05-09T04:47:00.482Z,97166.17
2018-05-09T04:49:27.735Z,97167.14
2018-05-09T04:51:55.050Z,97157.85
2018-05-09T04:54:22.254Z,97160.22
2018-05-09T04:56:49.330Z,97161.05
2018-05-09T04:59:16.440Z,97155.08
2018-05-09T05:01:43.557Z,97153.91
2018-05-09T05:04:10.670Z,97161.69
2018-05-09T05:06:37.980Z,97163.16
2018-05-09T05:09:05.071Z,97166.50
2018-05-09T05:11:32.202Z,97170.05
2018-05-09T05:13:59.391Z,97169.75
2018-05-09T05:16:26.532Z,97169.26
2018-05-09T05:18:53.616Z,97174.93
2018-05-09T05:21:20.761Z,97178.27
2018-05-09T05:23:47.836Z,97170.23
2018-05-09T05:26:15.056Z,97172.86
2018-05-09T05:28:42.180Z,97174.02
2018-05-09T05:31:09.267Z,97176.05
2018-05-09T05:33:36.327Z,97186.73
2018-05-09T05:36:03.392Z,97185.41
2018-05-09T05:38:30.482Z,97197.88
2018-05-09T05:40:57.690Z,97198.28
2018-05-09T05:43:24.805Z,97197.69
2018-05-09T05:45:51.927Z,97180.42
2018-05-09T05:48:19.011Z,97177.02
2018-05-09T05:50:46.107Z,97185.38
2018-05-09T05:53:13.227Z,97192.88
2018-05-09T05:55:40.532Z,97192.16
2018-05-09T05:58:07.701Z,97195.87
2018-05-09T06:00:34.858Z,97200.83
2018-05-09T06:03:01.946Z,97198.27
2018-05-09T06:05:29.044Z,97189.56
2018-05-09T06:07:56.188Z,97189.05
2018-05-09T06:10:23.484Z,97186.66
2018-05-09T06:12:50.602Z,97187.23
2018-05-09T06:15:17.684Z,97184.96
2018-05-09T06:17:44.767Z,97185.28
2018-05-09T06:20:11.842Z,97187.15
2018-05-09T06:22:38.908Z,97194.11
2018-05-09T06:25:06.019Z,97185.98
2018-05-09T06:27:33.109Z,97195.44
2018-05-09T06:30:00.209Z,97193.59
2018-05-09T06:32:27.306Z,97199.03
2018-05-09T06:34:54.343Z,97199.49
2018-05-09T06:37:21.887Z,97206.52
2018-05-09T06:39:49.429Z,97198.45
2018-05-09T06:42:17.062Z,97203.05
2018-05-09T06:44:44.653Z,97212.19
2018-05-09T06:47:12.201Z,97211.48
2018-05-09T06:49:40.734Z,97208.19
2018-05-09T06:52:08.278Z,97206.02
2018-05-09T06:54:35.971Z,97202.63
2018-05-09T06:57:03.508Z,97207.28
2018-05-09T06:59:31.063Z,97218.00
2018-05-09T07:01:58.587Z,97217.42
2018-05-09T07:04:26.113Z,97217.64
2018-05-09T07:06:53.642Z,97211.14
2018-05-09T07:09:21.190Z,97207.62
2018-05-09T07:11:48.752Z,97209.53
2018-05-09T07:14:16.264Z,97216.53
2018-05-09T07:16:43.803Z,97213.12
2018-05-09T07:19:11.327Z,97215.05
2018-05-09T07:21:38.865Z,97211.09
2018-05-09T07:24:06.414Z,97207.09
2018-05-09T07:26:33.917Z,97207.54
2018-05-09T07:29:01.477Z,97211.67
2018-05-09T07:31:29.011Z,97215.76
2018-05-09T07:33:56.604Z,97220.13
2018-05-09T07:36:24.171Z,97218.53
2018-05-09T07:38:51.823Z,97218.05
2018-05-09T07:41:19.432Z,97219.42
2018-05-09T07:43:47.006Z,97225.42
2018-05-09T07:46:14.544Z,97225.08
2018-05-09T07:48:42.066Z,97230.34
2018-05-09T07:51:09.596Z,97229.41
2018-05-09T07:53:37.127Z,97229.13
2018-05-09T07:56:04.637Z,97227.22
2018-05-09T07:58:32.173Z,97225.34
2018-05-09T08:00:59.717Z,97225.52
2018-05-09T08:03:27.243Z,97226.97
2018-05-09T08:05:54.848Z,97226.92
2018-05-09T08:08:22.337Z,97229.89
2018-05-09T08:10:49.862Z,97231.70
2018-05-09T08:13:17.444Z,97228.97
2018-05-09T08:15:45.059Z,97232.44
2018-05-09T08:18:12.593Z,97229.48
2018-05-09T08:20:40.128Z,97230.47
2018-05-09T08:23:07.737Z,97229.86
2018-05-09T08:25:35.255Z,97228.95
2018-05-09T08:28:02.779Z,97227.94
2018-05-09T08:30:30.338Z,97232.87
2018-05-09T08:32:57.865Z,97223.92
2018-05-09T08:35:25.395Z,97225.20
2018-05-09T08:37:52.917Z,97227.26
2018-05-09T08:40:20.484Z,97226.70
2018-05-09T08:42:48.012Z,97227.14
2018-05-09T08:45:15.823Z,97221.53
2018-05-09T08:47:43.462Z,97222.84
2018-05-09T08:50:10.977Z,97225.20
2018-05-09T08:52:38.503Z,97218.91
2018-05-09T08:55:06.047Z,97216.32
2018-05-09T08:57:33.653Z,97216.97
2018-05-09T09:00:01.174Z,97223.47
2018-05-09T09:02:28.940Z,97220.08
2018-05-09T09:04:56.897Z,97216.80
2018-05-09T09:07:24.435Z,97219.14
2018-05-09T09:09:52.063Z,97209.26
2018-05-09T09:12:19.783Z,97211.05
2018-05-09T09:14:47.404Z,97208.50
2018-05-09T09:17:14.912Z,97198.08
2018-05-09T09:19:42.466Z,97202.45
2018-05-09T09:22:09.979Z,97202.00
2018-05-09T09:24:37.689Z,97190.06
2018-05-09T09:27:05.235Z,97198.12
2018-05-09T09:29:32.745Z,97194.76
2018-05-09T09:32:00.340Z,97190.50
2018-05-09T09:34:27.859Z,97190.27
2018-05-09T09:36:55.404Z,97183.84
2018-05-09T09:39:22.928Z,97180.34
2018-05-09T09:41:50.468Z,97177.89
2018-05-09T09:44:18.039Z,97178.94
2018-05-09T09:46:45.614Z,97185.25
2018-05-09T09:49:13.450Z,97175.89
2018-05-09T09:51:41.063Z,97175.32
2018-05-09T09:54:08.672Z,97172.09
2018-05-09T09:56:36.313Z,97174.52
2018-05-09T09:59:04.102Z,97174.69
2018-05-09T10:01:31.694Z,97171.47
2018-05-09T10:03:59.190Z,97167.20
2018-05-09T10:06:26.694Z,97167.88
2018-05-09T10:08:54.204Z,97171.00
2018-05-09T10:11:21.830Z,97173.84
2018-05-09T10:13:49.424Z,97162.22
2018-05-09T10:16:16.992Z,97168.59
2018-05-09T10:18:44.529Z,97165.81
2018-05-09T10:21:12.133Z,97160.84
2018-05-09T10:23:39.774Z,97157.45
2018-05-09T10:26:07.430Z,97153.23
2018-05-09T10:28:35.054Z,97153.77
2018-05-09T10:31:02.678Z,97157.75
2018-05-09T10:33:30.186Z,97147.00
2018-05-09T10:35:57.825Z,97154.25
2018-05-09T10:38:25.435Z,97151.39
2018-05-09T10:40:53.002Z,97143.98
2018-05-09T10:43:20.825Z,97146.14
2018-05-09T10:45:48.514Z,97135.31
2018-05-09T10:48:16.036Z,97140.17
2018-05-09T10:50:43.760Z,97129.81
2018-05-09T10:53:11.431Z,97134.36
2018-05-09T10:55:38.939Z,97132.27
2018-05-09T10:58:06.481Z,97128.61
2018-05-09T11:00:34.708Z,97126.16
2018-05-09T11:03:02.292Z,97128.31
2018-05-09T11:05:29.868Z,97122.72
2018-05-09T11:07:57.439Z,97129.13
2018-05-09T11:10:25.010Z,97117.00
2018-05-09T11:12:52.524Z,97122.07
2018-05-09T11:15:20.240Z,97118.66
2018-05-09T11:17:47.778Z,97117.11
2018-05-09T11:20:15.304Z,97117.05
2018-05-09T11:22:42.836Z,97110.10
2018-05-09T11:25:10.409Z,97102.58
2018-05-09T11:27:37.962Z,97107.34
2018-05-09T11:30:05.518Z,97104.35
2018-05-09T11:32:33.262Z,97108.39
2018-05-09T11:35:00.807Z,97108.59
2018-05-09T11:37:28.365Z,97102.47
2018-05-09T11:39:55.974Z,97097.05
2018-05-09T11:42:23.506Z,97086.79
2018-05-09T11:44:51.093Z,97093.39
2018-05-09T11:47:18.620Z,97090.39
2018-05-09T11:49:46.155Z,97088.59
2018-05-09T11:52:13.678Z,97092.41
2018-05-09T11:54:41.231Z,97092.05
2018-05-09T11:57:08.769Z,97091.39
2018-05-09T11:59:36.316Z,97082.43
2018-05-09T12:02:03.906Z,97087.61
2018-05-09T12:04:31.571Z,97083.05
2018-05-09T12:06:59.934Z,97073.19
2018-05-09T12:09:27.461Z,97074.56
2018-05-09T12:11:55.017Z,97066.56
2018-05-09T12:14:22.549Z,97067.80
2018-05-09T12:16:50.170Z,97065.78
2018-05-09T12:19:17.683Z,97063.30
2018-05-09T12:21:45.340Z,97060.28
2018-05-09T12:24:12.875Z,97060.47
2018-05-09T12:26:40.404Z,97060.66
2018-05-09T12:29:07.911Z,97058.55
2018-05-09T12:31:35.425Z,97056.47
2018-05-09T12:34:03.047Z,97061.23
2018-05-09T12:36:30.646Z,97053.34
2018-05-09T12:38:58.179Z,97053.59
2018-05-09T12:41:25.856Z,97048.42
2018-05-09T12:43:53.457Z,97050.35
2018-05-09T12:46:21.091Z,97040.05
2018-05-09T12:48:48.788Z,97036.98
2018-05-09T12:51:16.335Z,97030.80
2018-05-09T12:53:43.969Z,97040.05
2018-05-09T12:56:11.626Z,97031.31
2018-05-09T12:58:39.253Z,97026.55
2018-05-09T13:01:06.784Z,97033.22
2018-05-09T13:03:34.306Z,97017.38
2018-05-09T13:06:02.014Z,97017.80
2018-05-09T13:08:29.530Z,97017.22
2018-05-09T13:10:57.149Z,97007.52
2018-05-09T13:13:24.713Z,97007.50
2018-05-09T13:15:52.373Z,96997.74
2018-05-09T13:18:20.005Z,96996.56
2018-05-09T13:20:47.620Z,96991.78
2018-05-09T13:23:15.413Z,96987.61
2018-05-09T13:25:43.046Z,96983.06
2018-05-09T13:28:10.804Z,96984.25
2018-05-09T13:30:38.630Z,96976.35
2018-05-09T13:33:06.212Z,96974.77
2018-05-09T13:35:34.104Z,96964.39
2018-05-09T13:38:01.804Z,96961.60
2018-05-09T13:40:29.340Z,96961.88
2018-05-09T13:42:57.045Z,96963.03
2018-05-09T13:45:24.676Z,96965.77
2018-05-09T13:47:52.556Z,96966.74
2018-05-09T13:50:20.074Z,96960.70
2018-05-09T13:52:47.791Z,96950.77
2018-05-09T13:55:15.316Z,96952.22
2018-05-09T13:57:43.016Z,96949.11
2018-05-09T14:00:10.689Z,96946.06
2018-05-09T14:02:38.359Z,96951.03
2018-05-09T14:05:06.210Z,96949.66
2018-05-09T14:07:33.807Z,96955.72
2018-05-09T14:10:01.470Z,96946.80
2018-05-09T14:12:29.008Z,96934.28
2018-05-09T14:14:56.541Z,96927.97
2018-05-09T14:17:24.096Z,96930.14
2018-05-09T14:19:51.645Z,96932.14
2018-05-09T14:22:19.379Z,96926.96
2018-05-09T14:24:46.925Z,96920.59
2018-05-09T14:27:14.488Z,96915.02
2018-05-09T14:29:42.069Z,96914.19
2018-05-09T14:32:09.641Z,96922.22
2018-05-09T14:34:37.179Z,96921.98
2018-05-09T14:37:04.894Z,96922.45
2018-05-09T14:39:32.419Z,96928.09
2018-05-09T14:42:00.014Z,96932.38
2018-05-09T14:44:27.561Z,96934.61
2018-05-09T14:46:55.091Z,96918.47
2018-05-09T14:49:22.765Z,96910.93
2018-05-09T14:51:50.494Z,96911.73
2018-05-09T14:54:18.309Z,96910.30
2018-05-09T14:56:45.866Z,96914.17
2018-05-09T14:59:13.395Z,96912.51
2018-05-09T15:01:40.927Z,96905.63
2018-05-09T15:04:08.459Z,96903.67
2018-05-09T15:06:36.150Z,96903.21
2018-05-09T15:09:03.714Z,96899.91
2018-05-09T15:11:31.256Z,96896.54
2018-05-09T15:13:58.808Z,96886.56
2018-05-09T15:16:26.456Z,96890.25
2018-05-09T15:18:53.974Z,96889.68
2018-05-09T15:21:21.848Z,96891.41
2018-05-09T15:23:49.360Z,96894.39
2018-05-09T15:26:16.895Z,96896.61
2018-05-09T15:28:44.591Z,96898.06
2018-05-09T15:31:12.114Z,96898.46
2018-05-09T15:33:39.752Z,96895.53
2018-05-09T15:36:07.285Z,96895.00
2018-05-09T15:38:34.851Z,96900.38
2018-05-09T15:41:02.409Z,96898.98
2018-05-09T15:43:29.944Z,96904.92
2018-05-09T15:45:57.555Z,96895.88
2018-05-09T15:48:25.094Z,96909.03
2018-05-09T15:50:52.766Z,96900.90
2018-05-09T15:53:20.313Z,96899.16
2018-05-09T15:55:47.862Z,96896.56
2018-05-09T15:58:15.404Z,96896.89
2018-05-09T16:00:42.960Z,96889.99
2018-05-09T16:03:10.512Z,96898.11
2018-05-09T16:05:38.145Z,96898.73
2018-05-09T16:08:05.699Z,96896.50
2018-05-09T16:10:33.408Z,96894.64
2018-05-09T16:13:00.892Z,96895.45
2018-05-09T16:15:28.602Z,96883.32
2018-05-09T16:17:56.200Z,96886.92
2018-05-09T16:20:23.830Z,96887.23
2018-05-09T16:22:51.628Z,96895.17
2018-05-09T16:25:19.171Z,96887.70
2018-05-09T16:27:46.702Z,96892.55
2018-05-09T16:30:14.355Z,96892.91
2018-05-09T16:32:41.983Z,96893.30
2018-05-09T16:35:09.631Z,96894.83
2018-05-09T16:37:37.407Z,96884.73
2018-05-09T16:40:05.321Z,96891.23
2018-05-09T16:42:32.944Z,96890.94
2018-05-09T16:45:00.525Z,96893.52
2018-05-09T16:47:28.101Z,96890.92
2018-05-09T16:49:55.670Z,96891.09
2018-05-09T16:52:23.356Z,96891.84
2018-05-09T16:54:51.054Z,96889.16
2018-05-09T16:57:18.616Z,96887.84
2018-05-09T16:59:46.341Z,96887.37
2018-05-09T17:02:14.171Z,96884.56
2018-05-09T17:04:42.103Z,96886.88
2018-05-09T17:07:09.743Z,96888.70
2018-05-09T17:09:37.519Z,96883.31
2018-05-09T17:12:05.171Z,96885.55
2018-05-09T17:14:32.727Z,96885.09
2018-05-09T17:17:00.305Z,96886.14
2018-05-09T17:19:27.851Z,96880.72
2018-05-09T17:22:13.068Z,96875.93
2018-05-09T17:24:40.209Z,96878.30
2018-05-09T17:27:07.312Z,96887.77
2018-05-09T17:29:34.542Z,96884.76
2018-05-09T17:32:01.681Z,96887.38
2018-05-09T17:34:29.297Z,96879.60
2018-05-09T17:36:56.837Z,96886.67
2018-05-09T17:39:24.466Z,96879.55
2018-05-09T17:41:52.003Z,96885.16
2018-05-09T17:44:19.094Z,96881.08
2018-05-09T17:46:46.191Z,96878.55
2018-05-09T17:49:13.287Z,96882.42
2018-05-09T17:51:40.376Z,96880.54
2018-05-09T17:54:07.458Z,96876.42
2018-05-09T17:56:34.571Z,96879.45
2018-05-09T17:59:01.672Z,96872.19
2018-05-09T18:01:28.807Z,96877.64
2018-05-09T18:03:55.917Z,96868.83
2018-05-09T18:06:22.986Z,96874.46
2018-05-09T18:08:50.123Z,96878.13
2018-05-09T18:11:17.207Z,96884.44
2018-05-09T18:13:44.447Z,96889.16
2018-05-09T18:16:11.792Z,96892.34
2018-05-09T18:18:39.075Z,96890.42
2018-05-09T18:21:06.303Z,96893.60
2018-05-09T18:23:33.401Z,96892.83
2018-05-09T18:26:00.518Z,96890.66
2018-05-09T18:28:27.662Z,96893.82
2018-05-09T18:30:54.837Z,96893.83
2018-05-09T18:33:21.930Z,96895.00
2018-05-09T18:35:49.153Z,96895.75
2018-05-09T18:38:16.234Z,96894.72
2018-05-09T18:40:43.451Z,96901.14
2018-05-09T18:43:10.618Z,96901.29
2018-05-09T18:45:38.010Z,96902.44
2018-05-09T18:48:05.114Z,96901.04
2018-05-09T18:50:32.231Z,96900.42
2018-05-09T18:52:59.331Z,96898.53
2018-05-09T18:55:26.453Z,96900.50
2018-05-09T18:57:53.528Z,96907.76
2018-05-09T19:00:20.624Z,96914.47
2018-05-09T19:02:47.748Z,96915.67
2018-05-09T19:05:15.248Z,96911.16
2018-05-09T19:07:42.949Z,96923.45
2018-05-09T19:10:10.509Z,96922.67
2018-05-09T19:12:38.157Z,96923.89
2018-05-09T19:15:05.312Z,96931.81
2018-05-09T19:17:32.413Z,96931.25
2018-05-09T19:20:00.054Z,96929.73
2018-05-09T19:22:27.287Z,96925.31
2018-05-09T19:24:54.398Z,96932.33
2018-05-09T19:27:21.623Z,96932.33
2018-05-09T19:29:48.709Z,96926.45
2018-05-09T19:32:15.819Z,96929.02
2018-05-09T19:34:42.916Z,96930.31
2018-05-09T19:37:10.181Z,96938.30
2018-05-09T19:39:37.283Z,96940.92
2018-05-09T19:42:04.386Z,96948.89
2018-05-09T19:44:31.446Z,96948.12
2018-05-09T19:46:58.543Z,96948.67
2018-05-09T19:49:25.622Z,96949.43
2018-05-09T19:51:52.766Z,96956.57
2018-05-09T19:54:19.939Z,96958.11
2018-05-09T19:56:47.033Z,96961.80
2018-05-09T19:59:14.140Z,96962.20
2018-05-09T20:01:41.220Z,96969.71
2018-05-09T20:04:08.819Z,96977.60
2018-05-09T20:06:36.048Z,96974.02
2018-05-09T20:09:03.361Z,96973.30
2018-05-09T20:11:30.466Z,96967.49
2018-05-09T20:13:57.935Z,96975.13
2018-05-09T20:16:25.099Z,96972.58
2018-05-09T20:18:52.201Z,96981.78
2018-05-09T20:21:19.362Z,96980.47
2018-05-09T20:23:46.487Z,96978.31
2018-05-09T20:26:13.608Z,96976.63
2018-05-09T20:28:46.365Z,96972.31
2018-05-09T20:31:25.176Z,96971.47
2018-05-09T20:33:52.255Z,96982.41
2018-05-09T20:36:19.338Z,96971.06
2018-05-09T20:38:46.672Z,96976.30
2018-05-09T20:41:13.788Z,96979.16
2018-05-09T20:43:40.858Z,96975.81
2018-05-09T20:46:08.063Z,96976.94
2018-05-09T20:48:35.174Z,96976.20
2018-05-09T20:51:02.391Z,96979.95
2018-05-09T20:53:29.602Z,96975.19
2018-05-09T20:55:56.689Z,96971.91
2018-05-09T20:58:23.797Z,96967.55
2018-05-09T21:00:51.721Z,96964.77
2018-05-09T21:03:18.799Z,96969.41
2018-05-09T21:05:45.933Z,96975.37
2018-05-09T21:08:13.389Z,96976.97
2018-05-09T21:10:40.591Z,96975.74
2018-05-09T21:13:07.700Z,96980.52
2018-05-09T21:15:34.828Z,96981.09
2018-05-09T21:18:01.904Z,96982.91
2018-05-09T21:20:29.119Z,96975.64
2018-05-09T21:22:56.262Z,96987.78
2018-05-09T21:25:23.362Z,96982.61
2018-05-09T21:27:50.472Z,96986.92
2018-05-09T21:30:17.742Z,96986.56
2018-05-09T21:32:44.858Z,96989.72
2018-05-09T21:35:13.969Z,96984.30
2018-05-09T21:37:41.162Z,96989.82
2018-05-09T21:40:08.258Z,96989.20
2018-05-09T21:42:35.316Z,96984.27
2018-05-09T21:45:02.467Z,96991.64
2018-05-09T21:47:29.631Z,96988.64
2018-05-09T21:49:56.861Z,96990.77
2018-05-09T21:52:23.973Z,96990.31
2018-05-09T21:54:51.087Z,96989.94
2018-05-09T21:57:18.153Z,96992.03
2018-05-09T21:59:45.253Z,96993.23
2018-05-09T22:02:12.384Z,96989.13
2018-05-09T22:04:39.493Z,96988.84
2018-05-09T22:07:06.743Z,96986.91
2018-05-09T22:09:33.896Z,96981.02
2018-05-09T22:12:00.967Z,96985.20
2018-05-09T22:14:28.049Z,96982.42
2018-05-09T22:16:55.113Z,96981.36
2018-05-09T22:19:22.509Z,96986.94
2018-05-09T22:21:49.697Z,96980.34
2018-05-09T22:24:16.752Z,96981.27
2018-05-09T22:26:43.911Z,96976.22
2018-05-09T22:29:11.012Z,96976.05
2018-05-09T22:31:38.083Z,96984.17
2018-05-09T22:34:05.150Z,96980.58
2018-05-09T22:36:32.257Z,96978.78
2018-05-09T22:38:59.343Z,96979.27
2018-05-09T22:41:26.399Z,96979.41
2018-05-09T22:43:53.496Z,96979.39
2018-05-09T22:46:20.579Z,96984.00
2018-05-09T22:48:47.662Z,96976.28
2018-05-09T22:51:14.788Z,96972.41
2018-05-09T22:53:41.854Z,96972.06
2018-05-09T22:56:08.932Z,96962.42
2018-05-09T22:58:36.938Z,96964.95
2018-05-09T23:01:04.036Z,96962.38
2018-05-09T23:03:31.101Z,96962.48
2018-05-09T23:05:58.173Z,96963.03
2018-05-09T23:08:25.223Z,96971.18
2018-05-09T23:10:52.319Z,96967.30
2018-05-09T23:13:19.374Z,96968.77
2018-05-09T23:15:46.528Z,96974.22
2018-05-09T23:18:13.773Z,96988.50
2018-05-09T23:20:40.904Z,96976.36
2018-05-09T23:23:08.022Z,96976.16
2018-05-09T23:25:35.112Z,96969.44
2018-05-09T23:28:02.211Z,96967.27
2018-05-09T23:30:29.321Z,96961.50
2018-05-09T23:32:56.449Z,96968.97
2018-05-09T23:35:23.537Z,96965.94
2018-05-09T23:37:50.731Z,96961.08
2018-05-09T23:40:17.737Z,96970.31
2018-05-09T23:42:44.877Z,96971.44
2018-05-09T23:45:11.989Z,96971.20
2018-05-09T23:47:39.148Z,96959.77
2018-05-09T23:50:06.208Z,96959.84
2018-05-09T23:52:33.267Z,96963.53
2018-05-09T23:55:00.366Z,96960.48
2018-05-09T23:57:27.447Z,96973.54
2018-05-09T23:59:54.491Z,96973.27
